• Join FlightAware (Why Join?)
  • Login
  • US Flag 
07:33AM EST


 

Airport Tracker/Info


-or-


 

Live Flight TrackerFlight Track Log ✈ N966QS ✈ 02-May-2013 ✈ KAGS - KBFI

Flight Track Log - Related Links

Times and Time Zones

All times are in EDT time to prevent confusion due to time zone crossing. See the N966QS flight status page for this flight to view local times or setup timezone preferences in your user account.

Time Position Orientation Groundspeed Altitude Reporting Facility
EDT Latitude Longitude Course Direction KTS MPH feet Rate Location/Type
02:34PM 33.4422 -82.0497 299° West 244 281 4,400  Level Atlanta Center
02:35PM 33.4747 -82.1311 296° West 260 299 7,600 2,700 Climbing Atlanta Center
02:36PM 33.5136 -82.2200 298° West 277 319 9,800 1,200 Climbing Atlanta Center
02:37PM 33.5794 -82.3058 313° West 313 360 10,000 720 Climbing Atlanta Center
02:38PM 33.6683 -82.3889 322° Northwest 408 470 11,300 1,440 Climbing Atlanta Center
02:39PM 33.7192 -82.7943 299° West  Level FlightAware Approximate
02:39PM 33.7489 -82.4747 318° Northwest 389 448 12,900  Level Atlanta Center
02:40PM 33.8169 -82.5786 308° West 388 447 15,000 2,100 Climbing Atlanta Center
02:41PM 33.8703 -82.6778 303° West 376 433 17,200 2,040 Climbing Atlanta Center
02:42PM 33.9361 -82.7844 307° West 376 433 19,100 1,860 Climbing Atlanta Center
02:43PM 33.9975 -82.8861 306° West 384 442 21,000 1,200 Climbing Atlanta Center
02:44PM 34.0633 -82.9981 305° West 406 467 21,600 600 Climbing Atlanta Center
02:45PM 34.1417 -83.1303 306° West 428 493 22,300 780 Climbing Atlanta Center
02:46PM 34.2111 -83.2525 305° West 448 516 23,200 900 Climbing Atlanta Center
02:47PM 34.2872 -83.3800 306° West 457 526 24,200 1,080 Climbing Atlanta Center
02:48PM 34.3608 -83.5078 305° West 471 542 25,400 1,200 Climbing Atlanta Center
02:49PM 34.4364 -83.6358 306° West 471 542 26,600 1,260 Climbing Atlanta Center
02:50PM 34.5119 -83.7667 305° West 476 548 28,000 1,440 Climbing Atlanta Center
02:51PM 34.5872 -83.8950 305° West 471 542 29,500 1,320 Climbing Atlanta Center
02:52PM 34.6500 -83.9983 306° West 471 542 30,700 1,560 Climbing Atlanta Center
02:53PM 34.7292 -84.1450 303° West 476 548 32,700 2,340 Climbing Atlanta Center
02:54PM 34.8103 -84.2817 306° West 466 536 35,400 2,280 Climbing Atlanta Center
02:55PM 34.8811 -84.4058 305° West 452 520 37,300 1,440 Climbing Atlanta Center
02:56PM 34.9433 -84.5178 304° West 452 520 38,300 960 Climbing Atlanta Center
02:57PM 35.0136 -84.6450 304° West 447 514 39,300 840 Climbing Atlanta Center
02:58PM 35.0861 -84.7697 305° West 447 514 40,000 300 Climbing Atlanta Center
02:59PM 35.1686 -84.8900 310° West 452 520 40,000  Level Atlanta Center
03:00PM 35.2575 -85.0156 311° West 475 547 40,000  Level Atlanta Center
03:01PM 35.4236 -85.2461 312° West 502 578 40,000  Level Memphis Center
03:02PM 35.5142 -85.3731 311° West 502 578 40,000  Level Memphis Center
03:03PM 35.6028 -85.5031 310° West 502 578 40,000  Level Memphis Center
03:04PM 35.6931 -85.6308 311° West 507 583 40,000  Level Memphis Center
03:05PM 35.7814 -85.7589 310° West 507 583 40,000  Level Memphis Center
03:06PM 35.8647 -85.8744 312° West 507 583 40,000  Level Memphis Center
03:07PM 35.9550 -86.0056 310° West 512 589 40,000  Level Memphis Center
03:08PM 36.0450 -86.1342 311° West 505 581 40,000  Level Memphis Center
03:09PM 36.1347 -86.2631 311° West 505 581 40,000  Level Memphis Center
03:10PM 36.2244 -86.3925 311° West 510 587 40,000  Level Memphis Center
03:11PM 36.3161 -86.5244 311° West 510 587 40,000  Level Memphis Center
03:12PM 36.4075 -86.6542 311° West 510 587 40,000  Level Memphis Center
03:13PM 36.5033 -86.7892 311° West 516 594 40,000  Level Memphis Center
03:14PM 36.5906 -86.9250 309° West 511 588 40,000  Level Memphis Center
03:15PM 36.6794 -87.0583 310° West 503 579 40,000  Level Memphis Center
03:16PM 36.7642 -87.1894 309° West 503 579 40,000  Level Memphis Center
03:17PM 36.8531 -87.3233 310° West 503 579 40,000  Level Memphis Center
03:18PM 36.9481 -87.4678 309° West 503 579 40,000  Level Memphis Center
03:19PM 37.0367 -87.5997 310° West 503 579 40,000  Level Memphis Center
03:20PM 37.1228 -87.7294 310° West 498 573 40,000  Level Memphis Center
03:21PM 37.2089 -87.8592 310° West 498 573 40,000  Level Memphis Center
03:22PM 37.2903 -87.9844 309° West 492 566 40,000  Level Memphis Center
03:23PM 37.3761 -88.1150 310° West 498 573 40,000  Level Memphis Center
03:26PM 37.5611 -88.4028 309° West 493 567 40,000  Level Kansas City Center
03:27PM 37.6642 -88.5636 309° West 491 565 40,000  Level Kansas City Center
03:28PM 37.7497 -88.6994 309° West 490 564 40,000  Level Kansas City Center
03:29PM 37.8314 -88.8258 309° West 493 567 40,000  Level Kansas City Center
03:30PM 37.9181 -88.9589 310° West 492 566 40,000  Level Kansas City Center
03:31PM 38.0169 -89.1233 307° West 489 563 40,000  Level Kansas City Center
03:32PM 38.1019 -89.2567 309° West 487 560 40,000  Level Kansas City Center
03:33PM 38.1872 -89.3906 309° West 486 559 40,000  Level Kansas City Center
03:34PM 38.2778 -89.5356 309° West 487 560 40,000  Level Kansas City Center
03:35PM 38.3619 -89.6706 309° West 486 559 40,000  Level Kansas City Center
03:36PM 38.4403 -89.7944 309° West 489 563 40,000  Level Kansas City Center
03:37PM 38.5244 -89.9292 309° West 488 562 40,000  Level Kansas City Center
03:38PM 38.6228 -90.0906 308° West 484 557 40,000  Level Kansas City Center
03:39PM 38.7044 -90.2242 308° West 481 554 40,000  Level Kansas City Center
03:40PM 38.7881 -90.3611 308° West 484 557 40,000  Level Kansas City Center
03:41PM 38.8722 -90.4997 308° West 491 565 40,000  Level Kansas City Center
03:42PM 38.9628 -90.6483 308° West 480 552 40,000  Level Kansas City Center
03:43PM 39.0461 -90.7808 309° West 479 551 40,000  Level Kansas City Center
03:44PM 39.1286 -90.9153 308° West 479 551 40,000  Level Kansas City Center
03:45PM 39.2114 -91.0500 308° West 480 552 40,000  Level Kansas City Center
03:46PM 39.2936 -91.1864 308° West 482 555 40,000  Level Kansas City Center
03:47PM 39.3772 -91.3219 309° West 483 556 40,000 240 Level Kansas City Center
03:48PM 39.4608 -91.4583 308° West 485 558 40,500 720 Climbing Kansas City Center
03:49PM 39.5506 -91.6086 308° West 475 547 41,600 1,020 Climbing Kansas City Center
03:50PM 39.6297 -91.7408 308° West 469 540 42,700 660 Climbing Kansas City Center
03:51PM 39.7078 -91.8733 307° West 466 536 43,000 120 Climbing Kansas City Center
03:52PM 39.8072 -92.0361 309° West 478 550 43,000  Level Kansas City Center
03:53PM 39.8903 -92.1764 308° West 488 562 43,000  Level Kansas City Center
03:54PM 39.9744 -92.3183 308° West 494 568 43,000  Level Kansas City Center
03:55PM 40.0631 -92.4692 308° West 495 570 43,000  Level Kansas City Center
03:56PM 40.1414 -92.6081 306° West 496 571 43,000  Level Kansas City Center
03:57PM 40.2022 -92.7850 294° West 480 552 43,000  Level Kansas City Center
03:59PM 40.2536 -92.9375 294° West 479 551 43,000  Level Kansas City Center
04:00PM 40.3164 -93.1208 294° West 480 552 43,000  Level Kansas City Center
04:01PM 40.3706 -93.2808 294° West 481 554 43,000  Level Kansas City Center
04:01PM 40.4022 -93.3764 294° West 484 557 43,000  Level Minneapolis Center
04:02PM 40.4564 -93.5361 294° West 484 557 43,000  Level Minneapolis Center
04:03PM 40.5094 -93.6989 293° West 487 560 43,000  Level Minneapolis Center
04:04PM 40.5639 -93.8631 294° West 492 566 43,000  Level Minneapolis Center
04:05PM 40.6186 -94.0247 294° West 489 563 43,000  Level Minneapolis Center
04:06PM 40.6714 -94.1881 293° West 488 562 43,000  Level Minneapolis Center
04:07PM 40.7342 -94.3828 293° West 485 558 43,000  Level Minneapolis Center
04:08PM 40.7767 -94.5131 293° West 486 559 43,000  Level Minneapolis Center
04:09PM 40.8442 -94.7208 293° West 484 557 43,000  Level Minneapolis Center
04:10PM 40.8981 -94.8869 293° West 489 563 43,000  Level Minneapolis Center
04:12PM 40.9501 -95.0489 293° West  Level FlightAware Approximate
04:12PM 40.9519 -95.0533 293° West 492 566 43,000  Level Minneapolis Center
04:13PM 41.0164 -95.2528 293° West 492 566 43,000  Level Minneapolis Center
04:14PM 41.0683 -95.4208 292° West 492 566 43,000  Level Minneapolis Center
04:15PM 41.1200 -95.5886 292° West 491 565 43,000  Level Minneapolis Center
04:16PM 41.1903 -95.7892 295° West 491 565 43,000  Level Minneapolis Center
04:17PM 41.2636 -95.9464 302° West 499 574 43,000  Level Minneapolis Center
04:18PM 41.3353 -96.1008 302° West 492 566 43,000  Level Minneapolis Center
04:19PM 41.4069 -96.2558 302° West 492 566 43,000  Level Minneapolis Center
04:20PM 41.4675 -96.3911 301° West 489 563 43,000  Level Minneapolis Center
04:21PM 41.5517 -96.5767 301° West 488 562 43,000  Level Minneapolis Center
04:22PM 41.6211 -96.7303 301° West 485 558 43,000  Level Minneapolis Center
04:23PM 41.7039 -96.9172 301° West 486 559 43,000  Level Minneapolis Center
04:24PM 41.7597 -97.0417 301° West 487 560 43,000  Level Minneapolis Center
04:25PM 41.8419 -97.2292 301° West 486 559 43,000  Level Minneapolis Center
04:26PM 41.9114 -97.3861 301° West 489 563 43,000  Level Minneapolis Center
04:27PM 41.9803 -97.5436 301° West 489 563 43,000  Level Minneapolis Center
04:28PM 42.0489 -97.7006 301° West 488 562 43,000  Level Minneapolis Center
04:29PM 42.1247 -97.8756 300° West 488 562 43,000  Level Minneapolis Center
04:30PM 42.1928 -98.0331 300° West 487 560 43,000  Level Minneapolis Center
04:31PM 42.2608 -98.1906 300° West 488 562 43,000  Level Minneapolis Center
04:32PM 42.3292 -98.3500 300° West 490 564 43,000  Level Minneapolis Center
04:33PM 42.4097 -98.5436 299° West 493 567 43,000  Level Minneapolis Center
04:34PM 42.4772 -98.7050 300° West 494 568 43,000  Level Minneapolis Center
04:36PM 42.5394 -98.8706 297° West 494 568 43,000  Level Minneapolis Center
04:37PM 42.5889 -99.0031 297° West 493 567 43,000  Level Minneapolis Center
04:38PM 42.6633 -99.2036 297° West 495 570 43,000  Level Minneapolis Center
04:39PM 42.7369 -99.4042 297° West 495 570 43,000  Level Minneapolis Center
04:40PM 42.7981 -99.5717 296° West 495 570 43,000  Level Minneapolis Center
04:42PM 42.9036 -99.8664 296° West  Level FlightAware Approximate
04:44PM 43.0525 -100.2803 296° West 497 572 43,000  Level Minneapolis Center
04:44PM 43.0758 -100.3478 295° West 498 573 43,000  Level Denver Center
04:45PM 43.1236 -100.4831 295° West 494 568 43,000  Level Minneapolis Center
04:45PM 43.1478 -100.5514 296° West 495 570 43,000  Level Denver Center
04:46PM 43.1380 -100.5255 296° West  Level FlightAware Approximate
04:46PM 43.2081 -100.7231 296° West 497 572 43,000  Level Denver Center
04:47PM 43.2678 -100.8950 296° West 497 572 43,000  Level Denver Center
04:49PM 43.2943 -100.9795 296° West  Level FlightAware Approximate
04:49PM 43.3269 -101.0653 296° West 495 570 43,000  Level Denver Center
04:50PM 43.3858 -101.2369 295° West 495 570 43,000  Level Denver Center
04:51PM 43.4447 -101.4092 295° West 496 571 43,000  Level Denver Center
04:52PM 43.5039 -101.5822 295° West 498 573 43,000  Level Denver Center
04:53PM 43.5215 -101.6475 295° West  Level FlightAware Approximate
04:53PM 43.5725 -101.7872 295° West 492 566 43,000  Level Denver Center
04:54PM 43.6417 -101.9917 295° West 489 563 43,000  Level Denver Center
04:55PM 43.6928 -102.1461 295° West 486 559 43,000  Level Denver Center
04:56PM 43.7547 -102.3350 294° West 485 558 43,000  Level Denver Center
04:57PM 43.8083 -102.4964 295° West 484 557 43,000  Level Denver Center
04:58PM 43.8686 -102.6833 294° West 479 551 43,000  Level Denver Center
04:59PM 43.9225 -102.8478 295° West 484 557 43,000  Level Denver Center
05:00PM 43.9861 -103.0397 295° West 488 562 43,000  Level Denver Center
05:01PM 44.0444 -103.2008 297° West 488 562 43,000  Level Denver Center
05:02PM 44.1122 -103.3889 297° West 489 563 43,000  Level Denver Center
05:03PM 44.1692 -103.5492 296° West 488 562 43,000  Level Denver Center
05:04PM 44.2350 -103.7386 296° West 489 563 43,000  Level Denver Center
05:05PM 44.2919 -103.8997 296° West 485 558 43,000  Level Denver Center
05:06PM 44.3589 -104.0900 296° West 490 564 43,000  Level Denver Center
05:07PM 44.4156 -104.2519 296° West 487 560 43,000  Level Denver Center
05:08PM 44.4617 -104.3872 296° West 485 558 43,000  Level Denver Center
05:09PM 44.5361 -104.6033 296° West 484 557 43,000  Level Denver Center
05:10PM 44.5922 -104.7642 296° West 481 554 43,000  Level Denver Center
05:11PM 44.6558 -104.9536 295° West 481 554 43,000  Level Denver Center
05:12PM 44.7097 -105.1158 295° West 480 552 43,000  Level Denver Center
05:14PM 44.7728 -105.3031 295° West 480 552 43,000  Level Denver Center
05:15PM 44.8264 -105.4661 295° West 481 554 43,000  Level Denver Center
05:16PM 44.8889 -105.6575 295° West 481 554 43,000  Level Denver Center
05:17PM 44.9444 -105.8231 295° West 486 559 43,000  Level Denver Center
05:18PM 45.0072 -106.0158 295° West 486 559 43,000  Level Denver Center
05:19PM 45.0697 -106.2094 295° West 486 559 43,000  Level Salt Lake Center
05:20PM 45.1239 -106.3767 295° West 488 562 43,000  Level Salt Lake Center
05:21PM 45.1836 -106.5711 294° West 484 557 43,000  Level Salt Lake Center
05:22PM 45.2375 -106.7372 295° West 483 556 43,000  Level Salt Lake Center
05:23PM 45.2894 -106.9053 294° West 485 558 43,000  Level Salt Lake Center
05:24PM 45.3506 -107.0986 294° West 483 556 43,000  Level Salt Lake Center
05:25PM 45.4017 -107.2667 293° West 483 556 43,000  Level Salt Lake Center
05:26PM 45.4617 -107.4594 294° West 480 552 43,000  Level Salt Lake Center
05:27PM 45.5111 -107.6247 293° West 479 551 43,000  Level Salt Lake Center
05:28PM 45.5694 -107.8183 293° West 477 549 43,000  Level Salt Lake Center
05:29PM 45.6189 -107.9833 293° West 476 548 43,000  Level Salt Lake Center
05:30PM 45.6772 -108.1767 293° West 478 550 43,000  Level Salt Lake Center
05:31PM 45.7267 -108.3456 293° West 483 556 43,000  Level Salt Lake Center
05:32PM 45.7856 -108.5419 293° West 482 555 43,000  Level Salt Lake Center
05:33PM 45.8317 -108.7142 291° West 485 558 43,000  Level Salt Lake Center
05:34PM 45.8833 -108.9133 291° West 479 551 43,000  Level Salt Lake Center
05:35PM 45.9264 -109.0814 290° West 471 542 43,000  Level Salt Lake Center
05:36PM 45.9778 -109.2833 290° West 480 552 43,000  Level Salt Lake Center
05:37PM 46.0208 -109.4569 290° West 482 555 43,000  Level Salt Lake Center
05:38PM 46.0650 -109.6300 290° West 483 556 43,000  Level Salt Lake Center
05:39PM 46.1147 -109.8353 289° West 487 560 43,000  Level Salt Lake Center
05:40PM 46.1564 -110.0125 289° West 488 562 43,000  Level Salt Lake Center
05:41PM 46.2058 -110.2175 289° West 486 559 43,000  Level Salt Lake Center
05:42PM 46.2472 -110.3947 289° West 486 559 43,000  Level Salt Lake Center
05:43PM 46.2969 -110.6014 289° West 486 559 43,000  Level Salt Lake Center
05:44PM 46.3386 -110.7786 289° West 487 560 43,000  Level Salt Lake Center
05:46PM 46.3842 -110.9747 289° West 487 560 43,000  Level Salt Lake Center
05:47PM 46.4275 -111.1572 289° West 484 557 43,000  Level Salt Lake Center
05:48PM 46.4733 -111.3614 288° West 483 556 43,000  Level Salt Lake Center
05:49PM 46.5150 -111.5458 288° West 481 554 43,000  Level Salt Lake Center
05:50PM 46.5567 -111.7331 288° West 485 558 43,000  Level Salt Lake Center
05:51PM 46.5983 -111.9161 288° West 480 552 43,000  Level Salt Lake Center
05:52PM 46.6428 -112.0981 290° West 478 550 43,000 -60 Level Salt Lake Center
05:53PM 46.6878 -112.2808 290° West 480 552 42,900 -60 Descending Salt Lake Center
05:54PM 46.7319 -112.4619 290° West 476 548 42,900  Level Salt Lake Center
05:55PM 46.7864 -112.6822 290° West 480 552 43,000  Climbing Salt Lake Center
05:56PM 46.8289 -112.8647 289° West 476 548 43,000 -60 Level Salt Lake Center
05:57PM 46.8742 -113.0497 290° West 474 545 42,900  Descending Salt Lake Center
05:58PM 46.9158 -113.2283 289° West 466 536 43,000  Climbing Salt Lake Center
05:59PM 46.9581 -113.4089 289° West 470 541 43,000  Level Salt Lake Center
06:00PM 47.0019 -113.5931 289° West 480 552 43,000  Level Salt Lake Center
06:01PM 47.0450 -113.7778 289° West 478 550 43,000  Level Salt Lake Center
06:02PM 47.0864 -113.9578 289° West 465 535 43,000 -60 Level Salt Lake Center
06:03PM 47.1339 -114.1689 288° West 455 524 42,900 -60 Descending Salt Lake Center
06:04PM 47.1750 -114.3483 289° West 463 533 42,900  Level Salt Lake Center
06:05PM 47.2156 -114.5308 288° West 468 539 43,000  Climbing Salt Lake Center
06:06PM 47.2556 -114.7142 288° West 470 541 43,000  Level Salt Lake Center
06:07PM 47.2967 -114.8992 288° West 472 543 43,000  Level Seattle Center
06:08PM 47.3358 -115.0836 287° West 473 544 43,000  Level Seattle Center
06:09PM 47.3758 -115.2672 288° West 469 540 43,000  Level Seattle Center
06:10PM 47.4156 -115.4492 288° West 466 536 43,000  Level Seattle Center
06:11PM 47.4531 -115.6308 287° West 463 533 43,000  Level Seattle Center
06:12PM 47.4672 -115.8083 277° West 470 541 43,000  Level Seattle Center
06:13PM 47.4792 -115.9975 275° West 464 534 43,000  Level Seattle Center
06:14PM 47.4897 -116.1878 275° West 465 535 43,000  Level Seattle Center
06:15PM 47.5003 -116.3758 275° West 462 532 43,000  Level Seattle Center
06:16PM 47.5133 -116.6033 275° West 463 533 43,000  Level Seattle Center
06:17PM 47.5239 -116.7969 275° West 469 540 43,000  Level Seattle Center
06:18PM 47.5331 -116.9661 275° West 472 543 43,000  Level Seattle Center
06:19PM 47.5422 -117.1614 274° West 476 548 43,000  Level Seattle Center
06:20PM 47.5511 -117.3572 274° West 475 547 43,000  Level Seattle Center
06:21PM 47.5611 -117.5489 274° West 469 540 43,000  Level Seattle Center
06:22PM 47.5797 -117.7767 277° West 465 535 43,000  Level Seattle Center
06:23PM 47.5978 -117.9647 278° West 463 533 43,000  Level Seattle Center
06:24PM 47.6142 -118.1511 277° West 459 528 43,000  Level Seattle Center
06:25PM 47.6319 -118.3397 278° West 463 533 43,000  Level Seattle Center
06:26PM 47.6486 -118.5281 278° West 463 533 43,000  Level Seattle Center
06:27PM 47.6664 -118.7167 278° West 463 533 43,000  Level Seattle Center
06:28PM 47.6814 -118.9067 277° West 465 535 43,000  Level Seattle Center
06:29PM 47.6969 -119.0972 277° West 466 536 43,000 -480 Level Seattle Center
06:30PM 47.7131 -119.2861 277° West 464 534 42,100 -1,620 Descending Seattle Center
06:31PM 47.7283 -119.4650 277° West 445 512 39,800 -2,220 Descending Seattle Center
06:32PM 47.7422 -119.6375 277° West 426 490 37,700 -2,220 Descending Seattle Center
06:33PM 47.7556 -119.8100 277° West 422 486 35,400 -2,580 Descending Seattle Center
06:35PM 47.7717 -120.0306 276° West 440 506 32,500 -2,640 Descending Seattle Center
06:36PM 47.7850 -120.2181 276° West 449 517 30,100 -2,460 Descending Seattle Center
06:37PM 47.8017 -120.4083 277° West 461 531 27,600 -2,460 Descending Seattle Center
06:38PM 47.8139 -120.5953 276° West 459 528 25,200 -2,400 Descending Seattle Center
06:39PM 47.8275 -120.7797 276° West 451 519 22,800 -2,220 Descending Seattle Center
06:40PM 47.8397 -120.9528 276° West 445 512 20,700 -2,220 Descending Seattle Center
06:41PM 47.8508 -121.1228 276° West 426 490 18,400 -2,340 Descending Seattle Center
06:41PM 47.8628 -121.2975 276° West 410 472 16,400 -2,220 Descending Seattle Center
06:43PM 47.8733 -121.4669 275° West 373 429 14,000 -2,040 Descending Seattle Center
06:43PM 47.8814 -121.5919 276° West 308 354 12,400 -1,500 Descending Seattle Center
06:45PM 47.8708 -121.7239 263° West 274 315 11,000 -720 Descending Seattle Center
06:46PM 47.8169 -121.8008 224° Southwest 288 331 11,000 -360 Level Seattle Center
06:46PM 47.7633 -121.8608 217° Southwest 290 334 10,400 -780 Descending Seattle Center
06:47PM 47.7408 -121.8700 195° South 282 325 10,100 -840 Descending Seattle Center
06:47PM 47.6883 -121.8900 194° South 282 325 9,600 -840 Descending Seattle Center
06:48PM 47.6647 -121.9006 197° South 283 326 9,300 -1,500 Descending Seattle Center
06:48PM 47.6083 -121.9250 196° South 280 322 8,100 -1,680 Descending Seattle Center
06:49PM 47.5903 -121.9322 195° South 277 319 7,600 -1,680 Descending Seattle Center
06:49PM 47.5447 -121.9806 216° Southwest 266 306 6,400 -1,680 Descending Seattle Center
06:50PM 47.5294 -121.9961 215° Southwest 268 308 5,900 -1,320 Descending Seattle Center
06:50PM 47.4919 -122.0528 226° Southwest 255 293 5,100 -900 Descending Seattle Center
06:51PM 47.4811 -122.0789 238° Southwest 244 281 5,000  Descending Seattle Center
06:52PM 47.4583 -122.1303 237° Southwest 210 242 5,100 -420 Climbing Seattle Center
06:52PM 47.4497 -122.1517 239° Southwest 213 245 4,600 -1,560 Descending Seattle Center
06:53PM 47.4383 -122.2006 251° West 153 176 3,400 -1,440 Descending Seattle Center
06:54PM 47.4606 -122.2439 307° West 117 135 2,000 -1,320 Descending Seattle Center
06:55PM 47.4894 -122.2706 328° Northwest 114 131 800 -1,200 Descending Seattle Center
06:58PM 47.5167 -122.3000 247° West  Level FlightAware Approximate